AEE825 EDDH-LGAV
Flight info
| Callsign | AEE825 |
|---|---|
| Flight time | N/A |
| Altitude | 35000 |
| Route | AMLUH3B/23 AMLUH M852 DENIX DCT ZUCKA DCT SODRO DCT RUDNO DCT LAMSI DCT LIMRA DCT GOLVA DCT MIRSO DCT PETOV DCT ZAG DCT AGLIB DCT PODOB DCT MEDUX UM867 KOGAT DCT TALAS DCT SIGFO UM749 ROPOX |
| Aircraft | A320/M-V/N |
Departure
| Time | N/A |
|---|---|
| Airport | Hamburg Helmut Schmidt Airport (EDDH) |
Arrival
| Time | 2026-05-03 21:18 |
|---|---|
| Airport | Athens Eleftherios Venizelos International Airport (LGAV) |
| Time | Latitude | Longitude | Altitude | Speed | Heading |
|---|---|---|---|---|---|
| 2026-05-03 20:15 | 43.29738 | 19.40962 | 35188 ft | 474 kts | 136° |
| 2026-05-03 20:15 | 43.24672 | 19.46685 | 35207 ft | 475 kts | 136° |
| 2026-05-03 20:16 | 43.19564 | 19.52430 | 35198 ft | 475 kts | 136° |
| 2026-05-03 20:16 | 43.14455 | 19.58168 | 35196 ft | 474 kts | 136° |
| 2026-05-03 20:17 | 43.09343 | 19.63879 | 35195 ft | 475 kts | 136° |
| 2026-05-03 20:17 | 43.04226 | 19.69583 | 35200 ft | 474 kts | 137° |
| 2026-05-03 20:18 | 42.99968 | 19.74305 | 35198 ft | 474 kts | 137° |
| 2026-05-03 20:18 | 42.94837 | 19.79980 | 35235 ft | 474 kts | 137° |
| 2026-05-03 20:19 | 42.89709 | 19.85665 | 35225 ft | 475 kts | 136° |
| 2026-05-03 20:19 | 42.84587 | 19.91341 | 35223 ft | 474 kts | 136° |
| 2026-05-03 20:20 | 42.79452 | 19.97012 | 35206 ft | 475 kts | 136° |
| 2026-05-03 20:20 | 42.74476 | 20.02793 | 35199 ft | 470 kts | 128° |
| 2026-05-03 20:21 | 42.70294 | 20.09552 | 35200 ft | 467 kts | 124° |
| 2026-05-03 20:21 | 42.66174 | 20.16373 | 35226 ft | 467 kts | 124° |
| 2026-05-03 20:22 | 42.62045 | 20.23181 | 35204 ft | 467 kts | 124° |
| 2026-05-03 20:22 | 42.57906 | 20.29971 | 35202 ft | 467 kts | 124° |
| 2026-05-03 20:23 | 42.53755 | 20.36770 | 35194 ft | 468 kts | 124° |
| 2026-05-03 20:23 | 42.49605 | 20.43565 | 35186 ft | 468 kts | 124° |
| 2026-05-03 20:24 | 42.45446 | 20.50358 | 35218 ft | 469 kts | 124° |
| 2026-05-03 20:24 | 42.41276 | 20.57139 | 35206 ft | 469 kts | 124° |
| 2026-05-03 20:25 | 42.37100 | 20.63916 | 35201 ft | 469 kts | 124° |
| 2026-05-03 20:25 | 42.32949 | 20.70649 | 35200 ft | 469 kts | 124° |
| 2026-05-03 20:26 | 42.28760 | 20.77405 | 35206 ft | 469 kts | 124° |
| 2026-05-03 20:26 | 42.24560 | 20.84173 | 35202 ft | 471 kts | 124° |
| 2026-05-03 20:27 | 42.20351 | 20.90957 | 35198 ft | 472 kts | 124° |
| 2026-05-03 20:27 | 42.16124 | 20.97743 | 35191 ft | 473 kts | 124° |
| 2026-05-03 20:28 | 42.11772 | 21.04412 | 35182 ft | 478 kts | 131° |
| 2026-05-03 20:28 | 42.06350 | 21.09711 | 35187 ft | 486 kts | 144° |
| 2026-05-03 20:29 | 42.00609 | 21.14540 | 35224 ft | 487 kts | 144° |
| 2026-05-03 20:29 | 41.94873 | 21.19378 | 35200 ft | 488 kts | 144° |
| 2026-05-03 20:30 | 41.89116 | 21.24226 | 35196 ft | 488 kts | 144° |
| 2026-05-03 20:30 | 41.83360 | 21.29065 | 35188 ft | 489 kts | 144° |
| 2026-05-03 20:31 | 41.77591 | 21.33900 | 35190 ft | 489 kts | 144° |
| 2026-05-03 20:31 | 41.71810 | 21.38727 | 35180 ft | 490 kts | 144° |
| 2026-05-03 20:32 | 41.66017 | 21.43559 | 35178 ft | 491 kts | 144° |
| 2026-05-03 20:32 | 41.60249 | 21.48352 | 35181 ft | 491 kts | 144° |
| 2026-05-03 20:33 | 41.54442 | 21.53178 | 35192 ft | 492 kts | 144° |
| 2026-05-03 20:33 | 41.48618 | 21.58003 | 35185 ft | 493 kts | 144° |
| 2026-05-03 20:34 | 41.42785 | 21.62829 | 35187 ft | 494 kts | 144° |
| 2026-05-03 20:34 | 41.36940 | 21.67649 | 35187 ft | 494 kts | 144° |
| 2026-05-03 20:35 | 41.31093 | 21.72464 | 35195 ft | 494 kts | 144° |
| 2026-05-03 20:35 | 41.25238 | 21.77283 | 35184 ft | 495 kts | 144° |
| 2026-05-03 20:36 | 41.19380 | 21.82090 | 35218 ft | 495 kts | 144° |
| 2026-05-03 20:36 | 41.13519 | 21.86879 | 35210 ft | 494 kts | 144° |
| 2026-05-03 20:37 | 41.07675 | 21.91639 | 35203 ft | 493 kts | 144° |
| 2026-05-03 20:37 | 41.01866 | 21.96476 | 35182 ft | 493 kts | 143° |
| 2026-05-03 20:38 | 40.96098 | 22.01377 | 35174 ft | 493 kts | 143° |
| 2026-05-03 20:38 | 40.90352 | 22.06242 | 35179 ft | 494 kts | 143° |
| 2026-05-03 20:39 | 40.84547 | 22.11107 | 35174 ft | 494 kts | 143° |
| 2026-05-03 20:39 | 40.78743 | 22.15941 | 35178 ft | 492 kts | 144° |
| 2026-05-03 20:40 | 40.72964 | 22.20754 | 35161 ft | 490 kts | 144° |
| 2026-05-03 20:40 | 40.67204 | 22.25563 | 35160 ft | 490 kts | 143° |
| 2026-05-03 20:41 | 40.61448 | 22.30356 | 35162 ft | 490 kts | 144° |
| 2026-05-03 20:41 | 40.55679 | 22.35136 | 35154 ft | 490 kts | 144° |
| 2026-05-03 20:42 | 40.49906 | 22.39907 | 35155 ft | 490 kts | 144° |
| 2026-05-03 20:42 | 40.44121 | 22.44672 | 35158 ft | 490 kts | 144° |
| 2026-05-03 20:43 | 40.38389 | 22.49400 | 35181 ft | 489 kts | 144° |
| 2026-05-03 20:43 | 40.32628 | 22.54152 | 35171 ft | 489 kts | 144° |
| 2026-05-03 20:44 | 40.26864 | 22.58883 | 35157 ft | 489 kts | 144° |
| 2026-05-03 20:44 | 40.21097 | 22.63606 | 35154 ft | 489 kts | 144° |
| 2026-05-03 20:45 | 40.15332 | 22.68310 | 35158 ft | 489 kts | 144° |
| 2026-05-03 20:45 | 40.09558 | 22.73019 | 35158 ft | 489 kts | 145° |
| 2026-05-03 20:46 | 40.03789 | 22.77724 | 35151 ft | 489 kts | 145° |
| 2026-05-03 20:46 | 39.98009 | 22.82417 | 35181 ft | 489 kts | 145° |
| 2026-05-03 20:47 | 39.92245 | 22.87087 | 35180 ft | 487 kts | 145° |
| 2026-05-03 20:47 | 39.86490 | 22.91746 | 35178 ft | 487 kts | 145° |
| 2026-05-03 20:48 | 39.80737 | 22.96392 | 35158 ft | 487 kts | 146° |
| 2026-05-03 20:48 | 39.74977 | 23.01037 | 35158 ft | 488 kts | 146° |
| 2026-05-03 20:49 | 39.69208 | 23.05680 | 35162 ft | 488 kts | 146° |
| 2026-05-03 20:49 | 39.63434 | 23.10312 | 35166 ft | 488 kts | 146° |
| 2026-05-03 20:50 | 39.57706 | 23.14896 | 35199 ft | 487 kts | 146° |
| 2026-05-03 20:50 | 39.51978 | 23.19476 | 35198 ft | 486 kts | 146° |
| 2026-05-03 20:51 | 39.46231 | 23.24074 | 35192 ft | 485 kts | 146° |
| 2026-05-03 20:51 | 39.40479 | 23.28652 | 35190 ft | 485 kts | 146° |
| 2026-05-03 20:52 | 39.34733 | 23.33217 | 35185 ft | 485 kts | 146° |
| 2026-05-03 20:52 | 39.28965 | 23.37803 | 34922 ft | 488 kts | 147° |
| 2026-05-03 20:52 | 39.26067 | 23.40098 | 34692 ft | 489 kts | 147° |
| 2026-05-03 20:53 | 39.23163 | 23.42393 | 34458 ft | 489 kts | 147° |
| 2026-05-03 20:53 | 39.20271 | 23.44675 | 34273 ft | 485 kts | 147° |
| 2026-05-03 20:53 | 39.17404 | 23.46935 | 34014 ft | 481 kts | 147° |
| 2026-05-03 20:53 | 39.14552 | 23.49180 | 33683 ft | 478 kts | 147° |
| 2026-05-03 20:54 | 39.11725 | 23.51404 | 33283 ft | 475 kts | 147° |
| 2026-05-03 20:54 | 39.06127 | 23.55821 | 32442 ft | 469 kts | 147° |
| 2026-05-03 20:54 | 39.03348 | 23.58012 | 32045 ft | 466 kts | 147° |
| 2026-05-03 20:55 | 39.00590 | 23.60180 | 31631 ft | 463 kts | 147° |
| 2026-05-03 20:55 | 38.97853 | 23.62333 | 31252 ft | 460 kts | 147° |
| 2026-05-03 20:55 | 38.94996 | 23.64161 | 30851 ft | 458 kts | 158° |
| 2026-05-03 20:55 | 38.91996 | 23.65327 | 30431 ft | 455 kts | 168° |
| 2026-05-03 20:56 | 38.88880 | 23.65855 | 29933 ft | 449 kts | 176° |
| 2026-05-03 20:56 | 38.85769 | 23.66186 | 29370 ft | 447 kts | 175° |
| 2026-05-03 20:56 | 38.82686 | 23.66628 | 28880 ft | 444 kts | 173° |
| 2026-05-03 20:56 | 38.79631 | 23.67129 | 28425 ft | 441 kts | 173° |
| 2026-05-03 20:57 | 38.76605 | 23.67640 | 27994 ft | 437 kts | 173° |
| 2026-05-03 20:57 | 38.73601 | 23.68136 | 27573 ft | 433 kts | 173° |
| 2026-05-03 20:57 | 38.70620 | 23.68603 | 27181 ft | 429 kts | 174° |
| 2026-05-03 20:57 | 38.67670 | 23.69043 | 26786 ft | 426 kts | 174° |
| 2026-05-03 20:58 | 38.64737 | 23.69467 | 26407 ft | 422 kts | 174° |
| 2026-05-03 20:58 | 38.61816 | 23.69884 | 25956 ft | 420 kts | 174° |
| 2026-05-03 20:58 | 38.58921 | 23.70297 | 25558 ft | 417 kts | 174° |
| 2026-05-03 20:58 | 38.56050 | 23.70712 | 25166 ft | 414 kts | 174° |
| 2026-05-03 20:59 | 38.53198 | 23.71130 | 24788 ft | 410 kts | 174° |
| 2026-05-03 20:59 | 38.50372 | 23.71544 | 24414 ft | 407 kts | 174° |
| 2026-05-03 20:59 | 38.47563 | 23.71953 | 24039 ft | 404 kts | 174° |
| 2026-05-03 20:59 | 38.44782 | 23.72357 | 23660 ft | 400 kts | 174° |
| 2026-05-03 21:00 | 38.42026 | 23.72756 | 23201 ft | 397 kts | 174° |
| 2026-05-03 21:00 | 38.41137 | 23.72885 | 23057 ft | 396 kts | 174° |
| 2026-05-03 21:00 | 38.36503 | 23.73556 | 21478 ft | 406 kts | 174° |
| 2026-05-03 21:00 | 38.33687 | 23.73961 | 20676 ft | 408 kts | 174° |
| 2026-05-03 21:01 | 38.30873 | 23.74365 | 20059 ft | 405 kts | 174° |
| 2026-05-03 21:01 | 38.28082 | 23.74768 | 19469 ft | 401 kts | 174° |
| 2026-05-03 21:01 | 38.25361 | 23.75162 | 18905 ft | 397 kts | 174° |
| 2026-05-03 21:01 | 38.22634 | 23.75556 | 18332 ft | 392 kts | 174° |
| 2026-05-03 21:02 | 38.19931 | 23.75840 | 17651 ft | 388 kts | 182° |
| 2026-05-03 21:02 | 38.17277 | 23.75454 | 17020 ft | 381 kts | 195° |
| 2026-05-03 21:02 | 38.14804 | 23.74361 | 16353 ft | 374 kts | 209° |
| 2026-05-03 21:02 | 38.12591 | 23.72683 | 15702 ft | 368 kts | 217° |
| 2026-05-03 21:03 | 38.10461 | 23.70888 | 15039 ft | 366 kts | 217° |
| 2026-05-03 21:03 | 38.08345 | 23.69107 | 14409 ft | 364 kts | 217° |
| 2026-05-03 21:03 | 38.06234 | 23.67339 | 13791 ft | 362 kts | 217° |
| 2026-05-03 21:03 | 38.05663 | 23.66863 | 13616 ft | 362 kts | 217° |
| 2026-05-03 21:04 | 38.04475 | 23.65869 | 13266 ft | 360 kts | 217° |
| 2026-05-03 21:05 | 38.02391 | 23.64128 | 12662 ft | 356 kts | 217° |
| 2026-05-03 21:05 | 38.00371 | 23.62436 | 12110 ft | 351 kts | 216° |
| 2026-05-03 21:05 | 37.98345 | 23.60740 | 11589 ft | 346 kts | 216° |
| 2026-05-03 21:05 | 37.96351 | 23.59071 | 11074 ft | 342 kts | 216° |
| 2026-05-03 21:06 | 37.94391 | 23.57435 | 10885 ft | 332 kts | 216° |
| 2026-05-03 21:06 | 37.92496 | 23.55857 | 10757 ft | 320 kts | 216° |
| 2026-05-03 21:06 | 37.90668 | 23.54334 | 10626 ft | 310 kts | 216° |
| 2026-05-03 21:06 | 37.88897 | 23.52856 | 10504 ft | 300 kts | 216° |
| 2026-05-03 21:07 | 37.87180 | 23.51425 | 10381 ft | 291 kts | 216° |
| 2026-05-03 21:07 | 37.85513 | 23.50037 | 10248 ft | 282 kts | 216° |
| 2026-05-03 21:07 | 37.83892 | 23.48690 | 10133 ft | 274 kts | 216° |
| 2026-05-03 21:07 | 37.82185 | 23.47681 | 10002 ft | 270 kts | 197° |
| 2026-05-03 21:08 | 37.80328 | 23.47489 | 9771 ft | 270 kts | 174° |
| 2026-05-03 21:08 | 37.78540 | 23.48166 | 9484 ft | 269 kts | 150° |
| 2026-05-03 21:08 | 37.77078 | 23.49594 | 9133 ft | 264 kts | 128° |
| 2026-05-03 21:08 | 37.76122 | 23.51522 | 8659 ft | 257 kts | 106° |
| 2026-05-03 21:09 | 37.75744 | 23.53677 | 8192 ft | 248 kts | 90° |
| 2026-05-03 21:09 | 37.75582 | 23.55842 | 7730 ft | 247 kts | 90° |
| 2026-05-03 21:09 | 37.75408 | 23.57992 | 7288 ft | 244 kts | 91° |
| 2026-05-03 21:09 | 37.75233 | 23.60108 | 6852 ft | 241 kts | 90° |
| 2026-05-03 21:10 | 37.75062 | 23.62202 | 6415 ft | 238 kts | 90° |
| 2026-05-03 21:10 | 37.74892 | 23.64269 | 5946 ft | 235 kts | 90° |
| 2026-05-03 21:10 | 37.74724 | 23.66312 | 5464 ft | 233 kts | 90° |
| 2026-05-03 21:10 | 37.74558 | 23.68336 | 4997 ft | 230 kts | 90° |
| 2026-05-03 21:11 | 37.74397 | 23.70339 | 4603 ft | 225 kts | 90° |
| 2026-05-03 21:11 | 37.74258 | 23.72263 | 4426 ft | 215 kts | 83° |
| 2026-05-03 21:11 | 37.74491 | 23.74074 | 4150 ft | 205 kts | 63° |
| 2026-05-03 21:11 | 37.75171 | 23.75610 | 3876 ft | 198 kts | 45° |
| 2026-05-03 21:12 | 37.76160 | 23.76740 | 3728 ft | 187 kts | 33° |
| 2026-05-03 21:12 | 37.77165 | 23.77688 | 3602 ft | 179 kts | 32° |
| 2026-05-03 21:12 | 37.78134 | 23.78605 | 3432 ft | 171 kts | 32° |
| 2026-05-03 21:12 | 37.79086 | 23.79504 | 3223 ft | 171 kts | 32° |
| 2026-05-03 21:13 | 37.80031 | 23.80397 | 3009 ft | 168 kts | 32° |
| 2026-05-03 21:13 | 37.80962 | 23.81278 | 2790 ft | 166 kts | 32° |
| 2026-05-03 21:13 | 37.81888 | 23.82154 | 2555 ft | 166 kts | 32° |
| 2026-05-03 21:13 | 37.82813 | 23.83030 | 2340 ft | 167 kts | 32° |
| 2026-05-03 21:14 | 37.83749 | 23.83916 | 2186 ft | 169 kts | 33° |
| 2026-05-03 21:14 | 37.84696 | 23.84813 | 2086 ft | 171 kts | 32° |
| 2026-05-03 21:14 | 37.85645 | 23.85712 | 1948 ft | 169 kts | 33° |
| 2026-05-03 21:14 | 37.86548 | 23.86570 | 1757 ft | 155 kts | 33° |
| 2026-05-03 21:15 | 37.87365 | 23.87347 | 1575 ft | 140 kts | 32° |
| 2026-05-03 21:15 | 37.88128 | 23.88061 | 1361 ft | 134 kts | 32° |
| 2026-05-03 21:15 | 37.88864 | 23.88763 | 1167 ft | 132 kts | 33° |
| 2026-05-03 21:15 | 37.89605 | 23.89467 | 974 ft | 135 kts | 32° |
| 2026-05-03 21:16 | 37.90365 | 23.90187 | 772 ft | 138 kts | 33° |
| 2026-05-03 21:16 | 37.91136 | 23.90922 | 628 ft | 139 kts | 33° |
| 2026-05-03 21:16 | 37.91912 | 23.91661 | 418 ft | 139 kts | 33° |
| 2026-05-03 21:16 | 37.92688 | 23.92399 | 308 ft | 139 kts | 32° |
| 2026-05-03 21:17 | 37.93397 | 23.93066 | 291 ft | 107 kts | 36° |
| 2026-05-03 21:17 | 37.93744 | 23.93394 | 293 ft | 81 kts | 36° |
| 2026-05-03 21:17 | 37.94240 | 23.93874 | 302 ft | 60 kts | 38° |
| 2026-05-03 21:17 | 37.94556 | 23.94180 | 305 ft | 54 kts | 37° |
| 2026-05-03 21:18 | 37.94773 | 23.94413 | 306 ft | 20 kts | 51° |
| 2026-05-03 21:18 | 37.94749 | 23.94523 | 304 ft | 16 kts | 130° |
| 2026-05-03 21:18 | 37.94669 | 23.94650 | 302 ft | 20 kts | 127° |
| 2026-05-03 21:18 | 37.94578 | 23.94802 | 304 ft | 23 kts | 126° |
| 2026-05-03 21:19 | 37.94477 | 23.94973 | 301 ft | 26 kts | 127° |
| 2026-05-03 21:19 | 37.94365 | 23.95163 | 303 ft | 28 kts | 127° |
| 2026-05-03 21:19 | 37.94243 | 23.95372 | 301 ft | 31 kts | 126° |
| 2026-05-03 21:19 | 37.94138 | 23.95551 | 300 ft | 16 kts | 109° |
| 2026-05-03 21:20 | 37.94192 | 23.95653 | 301 ft | 11 kts | 35° |
| 2026-05-03 21:20 | 37.94247 | 23.95641 | 300 ft | 10 kts | 312° |
| 2026-05-03 21:20 | 37.94290 | 23.95569 | 302 ft | 8 kts | 307° |
| 2026-05-03 21:20 | 37.94295 | 23.95561 | 300 ft | 0 kts | 307° |
| 2026-05-03 21:21 | 37.94296 | 23.95558 | 300 ft | 2 kts | 306° |
| 2026-05-03 21:21 | 37.94301 | 23.95550 | 302 ft | 0 kts | 305° |
| 2026-05-03 21:21 | 37.94302 | 23.95547 | 301 ft | 2 kts | 305° |
| 2026-05-03 21:21 | 37.94314 | 23.95525 | 301 ft | 5 kts | 303° |
| 2026-05-03 21:22 | 37.94342 | 23.95478 | 301 ft | 8 kts | 309° |
| 2026-05-03 21:22 | 37.94399 | 23.95465 | 301 ft | 11 kts | 27° |
| 2026-05-03 21:22 | 37.94444 | 23.95526 | 301 ft | 8 kts | 81° |
| 2026-05-03 21:22 | 37.94417 | 23.95562 | 302 ft | 5 kts | 178° |
| 2026-05-03 21:23 | 37.94389 | 23.95538 | 303 ft | 6 kts | 218° |
| 2026-05-03 21:23 | 37.94375 | 23.95524 | 301 ft | 0 kts | 218° |